Hlavní strana
METAR-TAF:

METAR-TAF

Letiště :

Béchar, Alžírsko

zeměpisná šířka: 31-37N, zeměpisná délka: 002-14W, výška: 773 m

Aktuální stav počasí

Zpráva byla vytvořena před 47 minutami, v 03:00 UTC
Jihojihovýchodní vítr 2 kt
Teplota 19°C
Vlhkost vzduchu 16%
Tlak 1021 hPa
Viditelnost: 8000 m

METAR: DAOR 070300Z 16002KT 8000 NSC 19/M07 Q1021

Čas: 04:47 (03:47 UTC)

Předpověď počasí

Zpráva byla vytvořena před 1 hodinou a 47 minutami, v 02:00 UTC
Předpověď platná od 07 v 03 UTC do 07 v 12 UTC
Jižní vítr 8 kt
Viditelnost: 8000 m

TAF: DAOR 070200Z 0703/0712 17008KT 8000 NSC

Stav a předpovědi počasí z více než 4 000 letišť (zprávy METAR a TAF).

Červené a žluté tečky na mapě představují dostupné meteorologické stanice.

Když kurzor umístíte na tečku, zobrazí se název stanice.

Pak kliknutím zobrazíte stav a předpověď počasí.

Chcete-li změnit mapu, kliknutím na zelené tlačítko se znaménkem +mapu přiblížíte, kliknutím na zelené tlačítko se znaménkem – mapu oddálíte a kliknutím na zelené šipky přejdete na sousední mapy.


METAR-TAF: